Time;durP1;ratioP1;P1;durP2;ratioP2;P2;SDS_P1;SDS_P2;PMS_P1;PMS_P2;Temp;Humidity;BMP_temperature;BMP_pressure;BME280_temperature;BME280_humidity;BME280_pressure;Samples;Min_cycle;Max_cycle;Signal;HPM_P1;HPM_P2
2022/10/29 00:00:54;;;;;;;9.45;4.05;;;;;;;15.07;88.42;99137.53;4157358;28;20492;-73
2022/10/29 00:02:55;;;;;;;10.18;4.55;;;;;;;15.11;88.52;99149.47;4156883;28;20052;-73
2022/10/29 00:04:55;;;;;;;9.55;4.45;;;;;;;15.11;88.01;99143.09;4154026;28;20033;-73
2022/10/29 00:06:55;;;;;;;10.38;4.93;;;;;;;15.10;88.93;99145.09;4156546;28;20511;-74
2022/10/29 00:08:56;;;;;;;12.50;3.97;;;;;;;15.08;88.36;99152.25;4157040;28;20045;-73
2022/10/29 00:11:10;;;;;;;9.43;4.03;;;;;;;15.05;88.61;99139.88;4158472;28;20415;-74
2022/10/29 00:13:11;;;;;;;9.43;4.13;;;;;;;15.07;88.25;99145.88;4155228;28;20053;-74
2022/10/29 00:15:11;;;;;;;8.50;4.05;;;;;;;15.08;88.29;99138.31;4155497;28;20041;-74
2022/10/29 00:17:11;;;;;;;6.10;3.50;;;;;;;15.09;88.03;99139.91;4155786;28;20133;-73
2022/10/29 00:19:11;;;;;;;6.75;3.90;;;;;;;15.05;87.91;99137.09;4161080;28;20036;-74
2022/10/29 00:21:19;;;;;;;11.45;4.10;;;;;;;15.05;88.17;99133.50;4159703;28;20041;-74
2022/10/29 00:23:19;;;;;;;11.88;4.43;;;;;;;15.02;87.89;99134.31;4155912;28;20420;-74
2022/10/29 00:25:19;;;;;;;8.63;3.90;;;;;;;14.97;87.77;99135.47;4158274;28;20076;-74
2022/10/29 00:27:19;;;;;;;9.15;3.70;;;;;;;14.91;87.78;99139.84;4156252;28;20096;-73
2022/10/29 00:29:20;;;;;;;9.40;4.70;;;;;;;14.83;88.44;99147.38;4162341;28;20556;-73
2022/10/29 00:31:23;;;;;;;10.60;4.18;;;;;;;14.76;88.90;99140.94;4153464;28;20339;-74
2022/10/29 00:33:24;;;;;;;10.38;5.07;;;;;;;14.69;88.80;99138.91;4155874;28;20042;-73
2022/10/29 00:35:25;;;;;;;12.25;4.78;;;;;;;14.63;89.15;99142.47;4155109;28;20041;-73
2022/10/29 00:37:25;;;;;;;12.05;4.40;;;;;;;14.55;89.59;99133.25;4159645;28;20467;-73
2022/10/29 00:39:25;;;;;;;11.93;4.63;;;;;;;14.51;89.57;99147.19;4156032;28;20053;-74
2022/10/29 00:41:28;;;;;;;13.82;4.88;;;;;;;14.44;90.14;99147.09;4154690;28;20045;-74
2022/10/29 00:43:32;;;;;;;9.13;4.30;;;;;;;14.37;90.69;99143.47;4156801;28;20087;-73
2022/10/29 00:45:32;;;;;;;12.18;5.25;;;;;;;14.31;90.35;99143.84;4156453;28;20394;-74
2022/10/29 00:47:35;;;;;;;12.70;4.95;;;;;;;14.21;91.50;99135.41;4158003;28;20048;-73
2022/10/29 00:49:39;;;;;;;10.40;5.05;;;;;;;14.18;91.94;99145.31;4158142;28;20466;-73
2022/10/29 00:51:39;;;;;;;10.90;4.43;;;;;;;14.11;92.16;99139.69;4157534;28;20060;-73
2022/10/29 00:53:45;;;;;;;8.07;4.20;;;;;;;14.05;91.78;99135.66;4156078;28;20042;-74
2022/10/29 00:55:45;;;;;;;14.95;4.95;;;;;;;13.99;92.98;99134.44;4158439;28;20047;-74
2022/10/29 00:57:51;;;;;;;14.50;4.82;;;;;;;13.92;92.69;99135.19;4156518;28;20043;-74
2022/10/29 00:59:51;;;;;;;13.73;4.82;;;;;;;13.88;93.06;99144.66;4159722;28;20057;-73
2022/10/29 01:01:54;;;;;;;7.88;4.03;;;;;;;13.82;92.75;99133.13;4159047;28;20272;-74
2022/10/29 01:03:55;;;;;;;9.88;5.53;;;;;;;13.77;93.69;99141.78;4158937;28;20197;-73
2022/10/29 01:05:56;;;;;;;9.15;4.75;;;;;;;13.72;93.80;99140.16;4162013;28;20445;-74
2022/10/29 01:07:56;;;;;;;12.60;4.80;;;;;;;13.70;93.41;99136.16;4163287;28;20037;-74
2022/10/29 01:09:57;;;;;;;13.90;5.15;;;;;;;13.67;93.43;99132.19;4160590;28;20067;-74
2022/10/29 01:12:15;;;;;;;9.13;4.40;;;;;;;13.66;93.99;99138.13;4160660;28;20052;-74
2022/10/29 01:14:46;;;;;;;12.18;4.70;;;;;;;13.60;94.38;99148.78;4161413;28;20096;-73
2022/10/29 01:17:04;;;;;;;9.43;4.70;;;;;;;13.54;94.23;99155.06;4159384;28;20053;-74
2022/10/29 01:19:27;;;;;;;13.52;4.93;;;;;;;13.52;93.64;99151.88;4157864;28;20048;-74
2022/10/29 01:21:41;;;;;;;14.95;4.95;;;;;;;13.47;94.37;99159.38;4162962;28;20052;-73
2022/10/29 01:24:00;;;;;;;10.50;5.03;;;;;;;13.44;94.26;99156.56;4161548;28;20136;-73
2022/10/29 01:26:22;;;;;;;9.70;4.88;;;;;;;13.41;94.88;99157.31;4158653;28;20041;-73
2022/10/29 01:28:53;;;;;;;12.48;4.88;;;;;;;13.41;94.31;99151.78;4159979;28;20057;-74
2022/10/29 01:31:19;;;;;;;12.60;5.13;;;;;;;13.35;94.23;99154.09;4159026;28;20140;-74
2022/10/29 01:33:53;;;;;;;16.85;4.72;;;;;;;13.31;95.36;99147.66;4159448;28;20237;-74
2022/10/29 01:36:03;;;;;;;14.75;5.03;;;;;;;13.26;93.97;99153.59;4160328;28;20126;-73
2022/10/29 01:38:25;;;;;;;13.18;5.18;;;;;;;13.10;96.89;99150.97;4157619;28;20061;-74
2022/10/29 01:40:47;;;;;;;11.85;5.20;;;;;;;13.05;96.91;99161.63;4159987;28;20413;-73
2022/10/29 01:43:02;;;;;;;15.10;4.90;;;;;;;13.00;96.85;99171.09;4159281;28;20135;-73
2022/10/29 01:45:31;;;;;;;12.30;4.47;;;;;;;13.04;96.15;99169.16;4158276;28;20041;-73
2022/10/29 01:47:42;;;;;;;16.67;5.20;;;;;;;12.97;96.86;99162.72;4152995;28;20067;-74
2022/10/29 01:49:47;;;;;;;14.25;5.60;;;;;;;12.88;97.83;99168.56;4159835;28;20049;-73
2022/10/29 01:51:48;;;;;;;17.15;5.55;;;;;;;12.83;97.28;99163.34;4162212;28;20053;-74
2022/10/29 01:53:50;;;;;;;8.63;4.95;;;;;;;12.78;97.60;99170.00;4158489;28;20044;-73
2022/10/29 01:55:50;;;;;;;9.57;4.65;;;;;;;12.74;97.01;99168.34;4158594;28;20205;-73
2022/10/29 01:57:51;;;;;;;11.75;5.05;;;;;;;12.68;98.38;99169.88;4161478;28;20040;-73
2022/10/29 01:59:53;;;;;;;11.30;6.43;;;;;;;12.64;99.36;99172.59;4157715;28;20041;-73
2022/10/29 02:02:22;;;;;;;11.02;4.60;;;;;;;12.60;99.38;99171.75;4160269;28;20492;-73
2022/10/29 02:04:25;;;;;;;10.90;4.82;;;;;;;12.55;98.86;99174.84;4158193;28;20351;-73
2022/10/29 02:06:54;;;;;;;13.63;4.95;;;;;;;12.53;98.52;99175.22;4158025;28;20501;-74
2022/10/29 02:09:06;;;;;;;13.38;5.00;;;;;;;12.49;98.70;99179.09;4157852;28;20603;-73
2022/10/29 02:11:34;;;;;;;9.27;5.05;;;;;;;12.47;99.23;99182.25;4158072;28;20041;-73
2022/10/29 02:14:05;;;;;;;12.13;5.07;;;;;;;12.43;100.00;99172.28;4136778;28;20462;-73
2022/10/29 02:16:07;;;;;;;9.40;5.13;;;;;;;12.42;100.00;99173.47;4151573;28;20441;-74
2022/10/29 02:18:07;;;;;;;14.23;6.10;;;;;;;12.35;100.00;99177.72;4157818;28;20037;-73
2022/10/29 02:20:10;;;;;;;11.18;5.25;;;;;;;12.32;100.00;99172.91;4158139;28;20780;-73
2022/10/29 02:22:11;;;;;;;9.65;5.18;;;;;;;12.31;100.00;99165.75;4158466;28;20086;-73
2022/10/29 02:24:11;;;;;;;12.05;4.88;;;;;;;12.32;100.00;99172.09;4158470;28;20468;-74
2022/10/29 02:26:12;;;;;;;13.30;5.40;;;;;;;12.28;100.00;99163.72;4160110;28;20025;-73
2022/10/29 02:28:12;;;;;;;13.70;4.97;;;;;;;12.26;99.66;99163.31;4158033;28;20215;-74
2022/10/29 02:30:13;;;;;;;12.82;5.30;;;;;;;12.18;99.92;99160.81;4159084;28;20033;-73
2022/10/29 02:32:13;;;;;;;13.55;5.53;;;;;;;12.13;99.67;99161.09;4160207;28;20116;-73
2022/10/29 02:34:13;;;;;;;10.43;4.40;;;;;;;12.13;99.88;99155.56;4157373;28;20427;-73
2022/10/29 02:36:13;;;;;;;8.98;4.78;;;;;;;12.05;98.86;99152.66;4161499;28;20060;-73
2022/10/29 02:38:14;;;;;;;12.32;5.03;;;;;;;12.02;99.99;99155.41;4161011;28;20021;-73
2022/10/29 02:40:14;;;;;;;10.43;5.20;;;;;;;11.96;100.00;99159.63;4158285;28;20109;-73
2022/10/29 02:42:14;;;;;;;11.45;6.00;;;;;;;11.91;100.00;99152.41;4162507;28;20048;-73
2022/10/29 02:44:15;;;;;;;9.60;5.00;;;;;;;11.92;99.32;99153.25;4159884;28;20284;-73
2022/10/29 02:46:20;;;;;;;12.25;5.13;;;;;;;11.93;99.32;99158.41;4156215;28;20843;-73
2022/10/29 02:48:21;;;;;;;12.32;5.45;;;;;;;11.92;99.14;99154.03;4156784;28;20381;-73
2022/10/29 02:50:21;;;;;;;12.77;4.95;;;;;;;11.88;99.47;99146.81;4156912;28;20041;-73
2022/10/29 02:52:21;;;;;;;8.88;4.70;;;;;;;11.90;99.22;99148.06;4158201;28;20710;-73
2022/10/29 02:54:22;;;;;;;11.98;4.82;;;;;;;11.90;98.35;99145.28;4156211;28;20340;-73
2022/10/29 02:56:22;;;;;;;13.52;5.53;;;;;;;11.84;99.53;99143.22;4157024;28;20405;-73
2022/10/29 02:58:22;;;;;;;9.27;5.07;;;;;;;11.76;100.00;99140.28;4158200;28;20048;-73
2022/10/29 03:00:23;;;;;;;9.73;4.53;;;;;;;11.73;100.00;99145.75;4160109;28;20040;-73
2022/10/29 03:02:23;;;;;;;9.30;5.28;;;;;;;11.69;100.00;99150.44;4156046;28;20469;-73
2022/10/29 03:04:23;;;;;;;8.20;4.68;;;;;;;11.67;100.00;99153.59;4157669;28;20041;-73
2022/10/29 03:06:23;;;;;;;12.43;5.32;;;;;;;11.67;100.00;99150.00;4156932;28;20047;-73
2022/10/29 03:08:24;;;;;;;8.63;4.95;;;;;;;11.69;100.00;99153.22;4156265;28;20694;-73
2022/10/29 03:10:24;;;;;;;12.02;4.28;;;;;;;11.70;99.98;99136.22;4157336;28;20377;-73
2022/10/29 03:12:24;;;;;;;9.73;4.68;;;;;;;11.71;99.72;99148.88;4155253;28;20038;-74
2022/10/29 03:14:24;;;;;;;11.30;4.82;;;;;;;11.72;99.24;99147.72;4159698;28;20341;-73
2022/10/29 03:16:25;;;;;;;9.60;4.57;;;;;;;11.75;98.84;99155.31;4157481;28;20056;-73
2022/10/29 03:18:25;;;;;;;9.07;5.20;;;;;;;11.74;98.64;99153.69;4156809;28;20064;-73
2022/10/29 03:20:25;;;;;;;12.15;5.60;;;;;;;11.76;98.88;99150.56;4159805;28;20048;-73
2022/10/29 03:22:26;;;;;;;16.70;5.68;;;;;;;11.78;99.80;99151.00;4155041;28;20485;-73
2022/10/29 03:24:26;;;;;;;9.93;4.53;;;;;;;11.80;99.75;99151.44;4158467;28;20041;-73
2022/10/29 03:26:26;;;;;;;8.40;4.72;;;;;;;11.72;100.00;99153.25;4156216;28;20045;-73
2022/10/29 03:28:27;;;;;;;17.98;6.82;;;;;;;11.64;100.00;99146.00;4158075;28;20166;-73
2022/10/29 03:30:27;;;;;;;9.50;5.10;;;;;;;11.59;100.00;99146.31;4158503;28;20041;-73
2022/10/29 03:32:27;;;;;;;12.07;4.72;;;;;;;11.49;100.00;99146.91;4158448;28;20144;-73
2022/10/29 03:34:28;;;;;;;9.65;5.75;;;;;;;11.35;100.00;99143.88;4157113;28;20045;-73
2022/10/29 03:36:28;;;;;;;10.32;5.03;;;;;;;11.27;100.00;99139.38;4158113;28;20041;-74
2022/10/29 03:38:28;;;;;;;11.93;5.45;;;;;;;11.18;100.00;99148.72;4157997;28;20548;-73
2022/10/29 03:40:29;;;;;;;10.00;5.22;;;;;;;11.14;100.00;99147.81;4157222;28;20401;-73
2022/10/29 03:42:32;;;;;;;9.45;5.00;;;;;;;11.16;100.00;99153.00;4158361;28;20056;-73
2022/10/29 03:44:32;;;;;;;9.48;4.20;;;;;;;11.20;100.00;99151.09;4157060;28;20055;-73
2022/10/29 03:46:33;;;;;;;9.98;4.78;;;;;;;11.18;100.00;99145.13;4158132;28;20041;-73
2022/10/29 03:48:33;;;;;;;9.50;5.35;;;;;;;11.15;100.00;99159.69;4160241;28;20046;-73
2022/10/29 03:50:34;;;;;;;7.97;4.50;;;;;;;11.11;100.00;99156.06;4155518;28;20080;-73
2022/10/29 03:52:34;;;;;;;11.23;5.10;;;;;;;11.10;100.00;99157.25;4156686;28;20509;-73
2022/10/29 03:54:35;;;;;;;9.63;5.68;;;;;;;11.07;100.00;99161.53;4160001;28;20045;-73
2022/10/29 03:56:35;;;;;;;16.13;5.85;;;;;;;11.06;100.00;99159.94;4155620;28;20160;-73
2022/10/29 03:58:35;;;;;;;9.95;5.53;;;;;;;11.00;100.00;99155.03;4158744;28;20625;-73
2022/10/29 04:00:35;;;;;;;12.75;5.32;;;;;;;11.03;100.00;99168.19;4157648;28;20079;-73
2022/10/29 04:02:36;;;;;;;10.52;5.30;;;;;;;11.02;100.00;99166.56;4156760;28;20048;-73
2022/10/29 04:04:36;;;;;;;8.60;4.75;;;;;;;11.00;100.00;99166.13;4157230;28;20405;-73
2022/10/29 04:06:36;;;;;;;7.13;4.88;;;;;;;10.98;100.00;99167.28;4157971;28;20316;-73
2022/10/29 04:08:37;;;;;;;10.32;5.80;;;;;;;10.96;100.00;99175.16;4157135;28;20363;-73
2022/10/29 04:10:42;;;;;;;8.30;5.10;;;;;;;10.89;100.00;99172.22;4158235;28;20064;-73
2022/10/29 04:12:46;;;;;;;10.55;5.32;;;;;;;10.86;100.00;99178.50;4156713;28;20061;-73
2022/10/29 04:14:47;;;;;;;8.85;4.65;;;;;;;10.81;100.00;99164.16;4158826;28;20565;-73
2022/10/29 04:16:47;;;;;;;12.73;4.53;;;;;;;10.84;100.00;99175.31;4159422;28;20353;-73
2022/10/29 04:18:48;;;;;;;12.43;5.35;;;;;;;10.81;100.00;99162.19;4156601;28;20132;-73
2022/10/29 04:20:48;;;;;;;9.27;5.00;;;;;;;10.81;100.00;99170.47;4157046;28;20045;-73
2022/10/29 04:22:50;;;;;;;8.02;4.80;;;;;;;10.84;100.00;99172.53;4156203;28;20395;-73
2022/10/29 04:24:51;;;;;;;9.25;5.10;;;;;;;10.84;100.00;99171.72;4156862;28;20305;-73
2022/10/29 04:26:51;;;;;;;10.82;4.63;;;;;;;10.85;100.00;99174.13;4158513;28;20075;-73
2022/10/29 04:28:51;;;;;;;11.57;4.88;;;;;;;10.80;100.00;99165.31;4157560;28;20485;-73
2022/10/29 04:30:52;;;;;;;7.18;4.90;;;;;;;10.79;100.00;99178.34;4155929;28;20083;-73
2022/10/29 04:32:56;;;;;;;11.13;4.90;;;;;;;10.75;100.00;99179.41;4155593;28;20095;-73
2022/10/29 04:34:57;;;;;;;8.10;4.53;;;;;;;10.73;100.00;99176.22;4157773;28;20132;-73
2022/10/29 04:36:57;;;;;;;13.38;4.93;;;;;;;10.68;100.00;99186.44;4155889;28;20088;-73
2022/10/29 04:38:57;;;;;;;9.50;4.45;;;;;;;10.63;100.00;99180.38;4159089;28;20045;-73
2022/10/29 04:40:58;;;;;;;10.25;4.47;;;;;;;10.58;100.00;99180.63;4155810;28;20045;-73
2022/10/29 04:42:59;;;;;;;12.07;5.40;;;;;;;10.57;100.00;99181.81;4155447;28;20045;-73
2022/10/29 04:44:59;;;;;;;9.05;4.65;;;;;;;10.47;100.00;99183.16;4156923;28;20065;-73
2022/10/29 04:47:00;;;;;;;8.43;4.13;;;;;;;10.41;100.00;99182.63;4157363;28;20437;-73
2022/10/29 04:49:00;;;;;;;11.48;5.25;;;;;;;10.35;100.00;99181.31;4159399;28;20069;-73
2022/10/29 04:51:00;;;;;;;10.15;4.55;;;;;;;10.32;100.00;99187.56;4155914;28;20038;-73
2022/10/29 04:53:03;;;;;;;11.10;5.25;;;;;;;10.26;100.00;99185.41;4156766;28;20120;-73
2022/10/29 04:55:03;;;;;;;11.48;5.30;;;;;;;10.21;100.00;99180.94;4157017;28;20044;-73
2022/10/29 04:57:04;;;;;;;10.98;5.50;;;;;;;10.16;100.00;99188.69;4158029;28;20465;-73
2022/10/29 04:59:04;;;;;;;6.72;4.30;;;;;;;10.12;100.00;99197.72;4155728;28;20516;-73
2022/10/29 05:01:04;;;;;;;11.32;4.68;;;;;;;10.08;100.00;99187.72;4153793;28;20037;-73
2022/10/29 05:03:05;;;;;;;8.55;4.72;;;;;;;10.07;100.00;99177.81;4154883;28;20091;-73
2022/10/29 05:05:05;;;;;;;8.43;4.68;;;;;;;10.09;100.00;99189.31;4155879;28;20407;-73
2022/10/29 05:07:05;;;;;;;12.55;4.32;;;;;;;10.11;100.00;99168.47;4154638;28;20351;-73
2022/10/29 05:09:06;;;;;;;10.60;5.97;;;;;;;10.14;100.00;99178.81;4154382;28;20042;-73
2022/10/29 05:11:06;;;;;;;7.00;4.20;;;;;;;10.04;100.00;99173.81;4153501;28;20076;-73
2022/10/29 05:13:10;;;;;;;7.57;4.93;;;;;;;10.02;100.00;99178.13;4154338;28;20358;-73
2022/10/29 05:15:10;;;;;;;10.93;4.65;;;;;;;9.98;100.00;99178.00;4159454;28;20478;-73
2022/10/29 05:17:11;;;;;;;9.15;3.92;;;;;;;9.98;100.00;99178.00;4154610;28;20056;-73
2022/10/29 05:19:11;;;;;;;7.88;4.65;;;;;;;9.95;100.00;99175.97;4155365;28;20501;-73
2022/10/29 05:21:11;;;;;;;13.55;5.57;;;;;;;9.94;100.00;99177.13;4154413;28;20079;-73
2022/10/29 05:23:12;;;;;;;9.50;5.22;;;;;;;9.93;100.00;99178.28;4156389;28;20045;-74
2022/10/29 05:25:12;;;;;;;7.50;4.47;;;;;;;9.90;100.00;99172.66;4153671;28;20274;-73
2022/10/29 05:27:13;;;;;;;9.30;5.03;;;;;;;9.91;100.00;99175.06;4156648;28;20424;-73
2022/10/29 05:29:13;;;;;;;11.90;4.97;;;;;;;9.90;100.00;99178.19;4155066;28;20033;-73
2022/10/29 05:31:14;;;;;;;10.65;4.60;;;;;;;9.91;100.00;99177.81;4154883;28;20125;-73
2022/10/29 05:33:17;;;;;;;19.90;6.25;;;;;;;9.90;100.00;99173.47;4154067;28;20572;-73
2022/10/29 05:35:17;;;;;;;13.30;5.75;;;;;;;9.85;100.00;99157.97;4154175;28;20144;-73
2022/10/29 05:37:17;;;;;;;11.60;4.85;;;;;;;9.93;100.00;99178.28;4152695;28;20143;-73
2022/10/29 05:39:18;;;;;;;16.25;6.10;;;;;;;9.97;100.00;99178.38;4154710;28;20061;-73
2022/10/29 05:41:18;;;;;;;14.52;5.72;;;;;;;9.98;100.00;99164.19;4154184;28;20379;-73
2022/10/29 05:43:19;;;;;;;15.73;5.80;;;;;;;10.04;100.00;99168.28;4157616;28;20047;-73
2022/10/29 05:45:19;;;;;;;19.90;7.55;;;;;;;10.05;100.00;99174.63;4156358;28;20490;-73
2022/10/29 05:47:19;;;;;;;13.50;6.10;;;;;;;10.08;100.00;99174.69;4156574;28;20132;-73
2022/10/29 05:49:20;;;;;;;14.25;5.93;;;;;;;10.08;100.00;99168.38;4161055;28;20084;-72
2022/10/29 05:51:20;;;;;;;13.48;5.93;;;;;;;10.07;100.00;99175.88;4158468;28;20489;-72
2022/10/29 05:53:20;;;;;;;13.00;5.50;;;;;;;10.07;100.00;99169.53;4160318;28;20044;-73
2022/10/29 05:55:21;;;;;;;14.30;6.10;;;;;;;10.08;100.00;99169.16;4157983;28;20444;-73
2022/10/29 05:57:21;;;;;;;17.25;7.13;;;;;;;10.11;100.00;99175.97;4155889;28;20069;-73
2022/10/29 05:59:21;;;;;;;19.02;6.55;;;;;;;10.06;100.00;99174.25;4156389;28;20095;-72
2022/10/29 06:01:22;;;;;;;15.75;6.68;;;;;;;9.99;100.00;99182.38;4156812;28;20049;-73
2022/10/29 06:03:22;;;;;;;20.40;6.97;;;;;;;9.95;100.00;99175.97;4158363;28;20472;-73
2022/10/29 06:05:23;;;;;;;22.10;7.28;;;;;;;9.97;100.00;99179.16;4157018;28;20046;-73
2022/10/29 06:07:23;;;;;;;16.83;6.85;;;;;;;9.93;100.00;99174.69;4156162;28;20340;-73
2022/10/29 06:09:23;;;;;;;17.50;7.78;;;;;;;9.85;100.00;99182.84;4157017;28;20482;-75
2022/10/29 06:11:24;;;;;;;23.33;6.63;;;;;;;9.80;100.00;99174.81;4156065;28;20060;-73
2022/10/29 06:13:24;;;;;;;13.65;6.38;;;;;;;9.77;100.00;99188.53;4156484;28;20429;-73
2022/10/29 06:15:24;;;;;;;13.07;5.53;;;;;;;9.71;100.00;99181.66;4156054;28;20111;-73
2022/10/29 06:17:25;;;;;;;17.23;6.75;;;;;;;9.64;100.00;99185.03;4156375;28;20049;-73
2022/10/29 06:19:25;;;;;;;18.90;6.22;;;;;;;9.65;100.00;99178.34;4159393;28;20058;-75
2022/10/29 06:21:25;;;;;;;19.48;6.07;;;;;;;9.65;100.00;99181.13;4160861;28;20084;-74
2022/10/29 06:23:27;;;;;;;15.60;6.03;;;;;;;9.64;100.00;99175.94;4155681;28;20469;-74
2022/10/29 06:25:27;;;;;;;15.35;5.25;;;;;;;9.67;100.00;99180.75;4160711;28;20045;-74
2022/10/29 06:27:27;;;;;;;8.73;4.78;;;;;;;9.68;100.00;99168.53;4156130;28;20213;-74
2022/10/29 06:29:28;;;;;;;10.05;5.43;;;;;;;9.72;100.00;99163.94;4157274;28;20344;-74
2022/10/29 06:31:28;;;;;;;13.65;5.20;;;;;;;9.79;100.00;99175.97;4155652;28;20053;-74
2022/10/29 06:33:28;;;;;;;22.45;6.10;;;;;;;9.77;100.00;99175.53;4156377;28;20474;-74
2022/10/29 06:35:29;;;;;;;19.55;6.85;;;;;;;9.81;100.00;99179.16;4156305;28;20064;-74
2022/10/29 06:37:32;;;;;;;21.13;5.75;;;;;;;9.82;100.00;99174.44;4155952;28;20045;-74
2022/10/29 06:39:32;;;;;;;16.40;5.03;;;;;;;9.90;100.00;99179.00;4156372;28;20056;-73
2022/10/29 06:41:33;;;;;;;11.27;6.25;;;;;;;9.98;100.00;99166.94;4156418;28;20058;-73
2022/10/29 06:43:33;;;;;;;17.23;7.90;;;;;;;10.02;100.00;99165.09;4155529;28;20051;-74
2022/10/29 06:45:33;;;;;;;13.52;7.07;;;;;;;10.03;100.00;99158.41;4155734;28;20428;-74
2022/10/29 06:47:41;;;;;;;17.17;6.20;;;;;;;10.05;100.00;99161.59;4158361;28;20080;-73
2022/10/29 06:49:41;;;;;;;14.45;7.43;;;;;;;10.06;100.00;99163.19;4158119;28;20328;-74
2022/10/29 06:51:41;;;;;;;20.50;6.05;;;;;;;10.08;100.00;99152.59;4156669;28;20590;-74
2022/10/29 06:53:42;;;;;;;14.02;6.60;;;;;;;10.12;100.00;99161.78;4159353;28;20051;-74
2022/10/29 06:55:42;;;;;;;16.80;7.05;;;;;;;10.14;100.00;99162.22;4157019;28;20053;-73
2022/10/29 06:57:42;;;;;;;12.85;6.20;;;;;;;10.20;100.00;99162.75;4157847;28;20416;-74
2022/10/29 06:59:43;;;;;;;23.70;6.55;;;;;;;10.25;100.00;99162.50;4156810;28;20053;-73
2022/10/29 07:01:45;;;;;;;12.15;6.35;;;;;;;10.26;100.00;99166.88;4159914;28;20048;-74
2022/10/29 07:03:45;;;;;;;19.05;6.72;;;;;;;10.24;100.00;99169.19;4155627;28;20513;-74
2022/10/29 07:05:46;;;;;;;16.17;5.75;;;;;;;10.25;100.00;99172.75;4156002;28;20045;-74
2022/10/29 07:07:46;;;;;;;12.48;6.78;;;;;;;10.25;100.00;99183.81;4156371;28;20362;-74
2022/10/29 07:09:47;;;;;;;14.38;5.95;;;;;;;10.24;100.00;99185.78;4101303;28;20091;-74
2022/10/29 07:11:47;;;;;;;12.57;5.97;;;;;;;10.27;100.00;99185.09;4158182;28;20064;-74
2022/10/29 07:13:47;;;;;;;9.95;6.38;;;;;;;10.27;100.00;99184.28;4155470;28;20041;-73
2022/10/29 07:15:47;;;;;;;12.65;5.80;;;;;;;10.33;100.00;99188.34;4156128;28;20048;-74
2022/10/29 07:17:59;;;;;;;15.48;6.95;;;;;;;10.41;100.00;99192.91;4155453;28;20068;-73
2022/10/29 07:19:59;;;;;;;14.02;6.47;;;;;;;10.47;100.00;99190.66;4156827;28;20049;-73
2022/10/29 07:21:59;;;;;;;13.27;6.18;;;;;;;10.54;100.00;99191.63;4156087;28;20043;-73
2022/10/29 07:24:00;;;;;;;19.00;6.38;;;;;;;10.60;100.00;99186.63;4154353;28;20607;-74
2022/10/29 07:26:00;;;;;;;14.10;6.80;;;;;;;10.66;100.00;99188.72;4154679;28;20049;-74
2022/10/29 07:28:12;;;;;;;18.85;6.25;;;;;;;10.73;100.00;99179.00;4158929;28;20069;-73
2022/10/29 07:30:12;;;;;;;14.85;6.53;;;;;;;10.80;100.00;99179.16;4159265;28;20056;-74
2022/10/29 07:32:12;;;;;;;13.55;6.07;;;;;;;10.83;100.00;99181.97;4156299;28;20036;-74
2022/10/29 07:34:13;;;;;;;19.77;6.75;;;;;;;10.88;100.00;99183.69;4158632;28;20486;-74
2022/10/29 07:36:13;;;;;;;16.83;6.13;;;;;;;10.92;100.00;99190.91;4158683;28;20029;-74
2022/10/29 07:38:13;;;;;;;11.48;5.75;;;;;;;10.96;100.00;99180.69;4162451;28;20036;-74
2022/10/29 07:40:14;;;;;;;9.48;5.53;;;;;;;11.03;100.00;99184.78;4155725;28;20038;-74
2022/10/29 07:42:14;;;;;;;12.00;5.85;;;;;;;11.05;100.00;99197.09;4157082;28;20414;-74
2022/10/29 07:44:14;;;;;;;13.57;7.18;;;;;;;11.11;100.00;99192.88;4155311;28;20040;-73
2022/10/29 07:46:15;;;;;;;8.18;6.22;;;;;;;11.14;100.00;99185.78;4155520;28;20029;-73
2022/10/29 07:48:16;;;;;;;10.88;7.30;;;;;;;11.20;100.00;99190.69;4157883;28;20365;-74
2022/10/29 07:50:16;;;;;;;18.35;7.88;;;;;;;11.27;100.00;99194.78;4154698;28;20095;-74
2022/10/29 07:52:17;;;;;;;14.32;7.60;;;;;;;11.34;100.00;99201.25;4159142;28;20022;-74
2022/10/29 07:54:17;;;;;;;20.13;8.23;;;;;;;11.38;100.00;99199.34;4160104;28;20041;-74
2022/10/29 07:56:17;;;;;;;18.58;7.15;;;;;;;11.43;100.00;99201.84;4154425;28;20029;-73
2022/10/29 07:58:17;;;;;;;21.20;7.75;;;;;;;11.49;100.00;99205.09;4156628;28;20369;-74
2022/10/29 08:00:18;;;;;;;13.27;8.35;;;;;;;11.54;100.00;99208.38;4154390;28;20148;-74
2022/10/29 08:02:18;;;;;;;10.93;6.78;;;;;;;11.61;100.00;99206.91;4156864;28;20263;-74
2022/10/29 08:04:18;;;;;;;12.32;7.28;;;;;;;11.66;100.00;99209.38;4155500;28;20041;-74
2022/10/29 08:06:19;;;;;;;15.85;8.55;;;;;;;11.68;100.00;99210.63;4156974;28;20075;-73
2022/10/29 08:08:19;;;;;;;16.95;7.65;;;;;;;11.75;100.00;99207.16;4156248;28;20133;-74
2022/10/29 08:10:20;;;;;;;10.38;6.63;;;;;;;11.79;100.00;99196.94;4157296;28;20155;-74
2022/10/29 08:12:21;;;;;;;12.05;6.93;;;;;;;11.86;100.00;99190.75;4154387;28;20160;-74
2022/10/29 08:14:21;;;;;;;15.90;7.28;;;;;;;11.93;100.00;99193.66;4156273;28;20088;-74
2022/10/29 08:16:21;;;;;;;13.85;7.25;;;;;;;11.99;100.00;99186.63;4155782;28;20980;-74
2022/10/29 08:18:21;;;;;;;16.27;7.28;;;;;;;12.05;100.00;99190.69;4157547;28;20040;-74
2022/10/29 08:20:25;;;;;;;15.18;7.90;;;;;;;12.09;100.00;99178.50;4159344;28;20126;-74
2022/10/29 08:22:25;;;;;;;15.05;8.93;;;;;;;12.15;100.00;99172.63;4154698;28;20056;-74
2022/10/29 08:24:25;;;;;;;15.07;8.63;;;;;;;12.21;100.00;99174.72;4155744;28;20402;-74
2022/10/29 08:26:25;;;;;;;21.63;11.25;;;;;;;12.29;100.00;99179.19;4156370;28;20067;-73
2022/10/29 08:28:26;;;;;;;21.73;12.02;;;;;;;12.31;100.00;99179.63;4156367;28;20385;-74
2022/10/29 08:30:26;;;;;;;21.08;10.75;;;;;;;12.38;100.00;99182.50;4157841;28;20303;-73
2022/10/29 08:32:27;;;;;;;19.60;10.05;;;;;;;12.43;100.00;99172.28;4157132;28;20206;-74
2022/10/29 08:34:27;;;;;;;14.52;8.25;;;;;;;12.48;100.00;99169.16;4157087;28;20220;-74
2022/10/29 08:36:27;;;;;;;11.43;7.70;;;;;;;12.53;100.00;99174.41;4159106;28;20393;-74
2022/10/29 08:38:27;;;;;;;12.18;7.22;;;;;;;12.58;100.00;99171.31;4158744;28;20111;-74
2022/10/29 08:40:53;;;;;;;11.75;7.85;;;;;;;12.67;100.00;99182.97;4158449;28;20456;-74
2022/10/29 08:43:36;;;;;;;17.50;8.95;;;;;;;12.73;100.00;99184.22;4158394;28;20509;-74
2022/10/29 08:45:45;;;;;;;16.65;8.18;;;;;;;12.80;100.00;99169.63;4129709;28;20053;-74
2022/10/29 08:48:32;;;;;;;25.58;17.00;;;;;;;12.92;100.00;99167.44;4156063;28;20029;-73
2022/10/29 08:50:39;;;;;;;17.00;11.07;;;;;;;13.01;100.00;99169.94;4155501;28;20084;-74
2022/10/29 08:52:42;;;;;;;18.50;9.45;;;;;;;13.05;100.00;99156.88;4153881;28;20395;-74
2022/10/29 08:54:45;;;;;;;;;;;;;;;13.15;100.00;99174.84;4158614;28;20061;-74
2022/10/29 08:56:51;;;;;;;20.20;7.97;;;;;;;13.21;100.00;99173.38;4157913;28;19951;-74
2022/10/29 08:59:09;;;;;;;17.38;8.60;;;;;;;13.27;100.00;99171.84;4157861;28;20221;-74
2022/10/29 09:01:11;;;;;;;23.15;9.63;;;;;;;13.32;100.00;99177.09;4158638;28;20052;-74
2022/10/29 09:03:12;;;;;;;16.45;8.80;;;;;;;13.41;100.00;99182.34;4156333;28;20052;-74
2022/10/29 09:05:14;;;;;;;16.63;7.97;;;;;;;13.48;100.00;99179.63;4157596;28;20045;-74
2022/10/29 09:07:41;;;;;;;13.52;7.68;;;;;;;13.58;100.00;99184.53;4160602;28;20037;-74
2022/10/29 09:10:00;;;;;;;11.18;6.65;;;;;;;13.67;100.00;99181.44;4160255;28;20394;-73
2022/10/29 09:12:14;;;;;;;13.05;6.22;;;;;;;13.73;100.00;99180.69;4156656;28;20065;-74
2022/10/29 09:14:21;;;;;;;14.27;8.02;;;;;;;13.83;100.00;99173.66;4156250;28;20050;-74
2022/10/29 09:16:41;;;;;;;14.27;6.55;;;;;;;13.91;100.00;99175.31;4156250;28;20055;-74
2022/10/29 09:18:51;;;;;;;14.80;7.43;;;;;;;13.97;100.00;99170.97;4158361;28;20182;-74
2022/10/29 09:20:55;;;;;;;18.15;7.60;;;;;;;14.05;100.00;99157.94;4160863;28;20132;-74
2022/10/29 09:22:58;;;;;;;14.50;6.50;;;;;;;14.19;100.00;99160.03;4161204;28;20045;-74
2022/10/29 09:25:17;;;;;;;13.75;6.32;;;;;;;14.25;100.00;99167.66;4171241;28;20551;-74
2022/10/29 09:27:23;;;;;;;14.63;6.68;;;;;;;14.33;100.00;99165.72;4160399;28;20502;-74
2022/10/29 09:29:47;;;;;;;10.43;6.38;;;;;;;14.42;100.00;99159.81;4161264;28;20040;-74
2022/10/29 09:31:56;;;;;;;11.68;6.75;;;;;;;14.51;100.00;99163.09;4161171;28;20045;-74